createdAt,value
2019-03-09T00:01:28.035Z,2.31
2019-03-09T00:03:59.682Z,2.29
2019-03-09T00:06:30.202Z,2.28
2019-03-09T00:09:00.739Z,2.30
2019-03-09T00:11:34.007Z,2.30
2019-03-09T00:14:04.721Z,2.27
2019-03-09T00:16:36.613Z,2.28
2019-03-09T00:19:07.633Z,2.30
2019-03-09T00:21:39.519Z,2.32
2019-03-09T00:24:17.365Z,2.28
2019-03-09T00:26:50.814Z,2.30
2019-03-09T00:29:22.726Z,2.31
2019-03-09T00:32:01.570Z,2.37
2019-03-09T00:34:33.047Z,2.38
2019-03-09T00:37:03.574Z,2.37
2019-03-09T00:39:34.117Z,2.35
2019-03-09T00:42:05.558Z,2.35
2019-03-09T00:44:37.017Z,2.33
2019-03-09T00:47:08.464Z,2.36
2019-03-09T00:49:39.917Z,2.37
2019-03-09T00:52:11.356Z,2.39
2019-03-09T00:54:41.892Z,2.42
2019-03-09T00:57:12.425Z,2.45
2019-03-09T00:59:42.969Z,2.52
2019-03-09T01:02:14.410Z,2.52
2019-03-09T01:04:44.952Z,2.51
2019-03-09T01:07:15.493Z,2.50
2019-03-09T01:09:46.934Z,2.50
2019-03-09T01:12:19.296Z,2.50
2019-03-09T01:14:51.250Z,2.51
2019-03-09T01:17:21.582Z,2.51
2019-03-09T01:19:53.052Z,2.54
2019-03-09T01:22:23.571Z,2.55
2019-03-09T01:24:54.111Z,2.52
2019-03-09T01:27:25.535Z,2.55
2019-03-09T01:29:55.807Z,2.53
2019-03-09T01:32:27.210Z,2.51
2019-03-09T01:34:59.604Z,2.52
2019-03-09T01:37:31.034Z,2.50
2019-03-09T01:40:02.588Z,2.45
2019-03-09T01:42:36.101Z,2.48
2019-03-09T01:45:09.829Z,2.50
2019-03-09T01:47:40.211Z,2.49
2019-03-09T01:50:10.485Z,2.50
2019-03-09T01:52:40.979Z,2.48
2019-03-09T01:55:13.832Z,2.50
2019-03-09T01:57:44.185Z,2.49
2019-03-09T02:00:16.366Z,2.51
2019-03-09T02:02:46.773Z,2.53
2019-03-09T02:05:19.163Z,2.53
2019-03-09T02:07:50.603Z,2.48
2019-03-09T02:10:22.070Z,2.50
2019-03-09T02:12:53.504Z,2.54
2019-03-09T02:15:24.971Z,2.52
2019-03-09T02:17:56.404Z,2.54
2019-03-09T02:20:27.872Z,2.56
2019-03-09T02:22:59.305Z,2.59
2019-03-09T02:25:30.779Z,2.62
2019-03-09T02:28:01.292Z,2.59
2019-03-09T02:30:34.004Z,2.66
2019-03-09T02:33:05.415Z,2.66
2019-03-09T02:35:37.812Z,2.71
2019-03-09T02:38:12.460Z,2.75
2019-03-09T02:40:42.867Z,2.75
2019-03-09T02:43:14.300Z,2.76
2019-03-09T02:45:44.572Z,2.78
2019-03-09T02:48:15.970Z,2.79
2019-03-09T02:50:56.609Z,2.84
2019-03-09T02:53:27.327Z,2.88
2019-03-09T02:55:57.712Z,2.88
2019-03-09T02:58:29.142Z,2.92
2019-03-09T03:01:05.330Z,2.91
2019-03-09T03:03:35.745Z,2.87
2019-03-09T03:06:06.290Z,2.90
2019-03-09T03:08:38.950Z,2.93
2019-03-09T03:11:10.409Z,2.96
2019-03-09T03:13:41.843Z,2.97
2019-03-09T03:16:13.680Z,3.03
2019-03-09T03:18:45.052Z,3.03
2019-03-09T03:21:15.360Z,3.08
2019-03-09T03:23:47.657Z,3.15
2019-03-09T03:26:19.123Z,3.19
2019-03-09T03:28:50.565Z,3.25
2019-03-09T03:31:22.024Z,3.32
2019-03-09T03:33:52.539Z,3.40
2019-03-09T03:36:23.084Z,3.47
2019-03-09T03:38:54.522Z,3.51
2019-03-09T03:41:25.995Z,3.52
2019-03-09T03:43:57.429Z,3.59
2019-03-09T03:46:28.894Z,3.60
2019-03-09T03:49:00.326Z,3.68
2019-03-09T03:51:30.873Z,3.71
2019-03-09T03:54:02.309Z,3.78
2019-03-09T03:56:33.773Z,3.84
2019-03-09T03:59:07.766Z,3.90
2019-03-09T04:01:38.219Z,3.95
2019-03-09T04:04:08.745Z,4.03
2019-03-09T04:06:39.274Z,4.12
2019-03-09T04:09:10.707Z,4.16
2019-03-09T04:11:41.250Z,4.24
2019-03-09T04:14:11.773Z,4.26
2019-03-09T04:16:42.313Z,4.31
2019-03-09T04:19:12.841Z,4.34
2019-03-09T04:21:43.371Z,4.36
2019-03-09T04:24:13.891Z,4.45
2019-03-09T04:26:44.434Z,4.43
2019-03-09T04:29:14.942Z,4.47
2019-03-09T04:31:46.407Z,4.51
2019-03-09T04:34:17.858Z,4.54
2019-03-09T04:36:50.935Z,4.53
2019-03-09T04:39:21.361Z,4.51
2019-03-09T04:41:54.961Z,4.59
2019-03-09T04:44:27.166Z,4.70
2019-03-09T04:46:59.110Z,4.71
2019-03-09T04:49:29.634Z,4.78
2019-03-09T04:52:00.166Z,4.81
2019-03-09T04:54:30.684Z,4.87
2019-03-09T04:57:01.230Z,4.85
2019-03-09T04:59:31.740Z,4.90
2019-03-09T05:02:02.289Z,4.88
2019-03-09T05:04:42.146Z,4.90
2019-03-09T05:07:15.563Z,4.91
2019-03-09T05:10:06.907Z,4.90
2019-03-09T05:12:37.342Z,4.88
2019-03-09T05:15:13.082Z,4.86
2019-03-09T05:17:45.710Z,4.82
2019-03-09T05:20:17.147Z,4.66
2019-03-09T05:22:48.614Z,4.68
2019-03-09T05:25:19.126Z,4.67
2019-03-09T05:27:49.669Z,4.61
2019-03-09T05:30:39.019Z,4.65
2019-03-09T05:33:09.480Z,4.62
2019-03-09T05:35:39.998Z,4.63
2019-03-09T05:38:10.540Z,4.63
2019-03-09T05:40:41.040Z,4.63
2019-03-09T05:43:11.589Z,4.59
2019-03-09T05:45:42.106Z,4.57
2019-03-09T05:48:12.644Z,4.57
2019-03-09T05:50:44.082Z,4.58
2019-03-09T05:53:17.531Z,4.56
2019-03-09T05:55:47.910Z,4.55
2019-03-09T05:58:18.451Z,4.62
2019-03-09T06:00:48.973Z,4.54
2019-03-09T06:03:20.443Z,4.54
2019-03-09T06:05:52.030Z,4.65
2019-03-09T06:08:22.415Z,4.71
2019-03-09T06:10:52.939Z,4.79
2019-03-09T06:13:23.478Z,4.87
2019-03-09T06:15:54.007Z,5.08
2019-03-09T06:18:24.553Z,5.27
2019-03-09T06:20:55.987Z,5.58
2019-03-09T06:23:26.548Z,5.64
2019-03-09T06:25:57.043Z,6.02
2019-03-09T06:28:27.580Z,6.02
2019-03-09T06:30:59.010Z,6.04
2019-03-09T06:33:30.895Z,6.47
2019-03-09T06:36:10.011Z,6.15
2019-03-09T06:38:58.417Z,6.18
2019-03-09T06:41:40.920Z,6.05
2019-03-09T06:44:11.314Z,6.17
2019-03-09T06:46:41.843Z,6.29
2019-03-09T06:49:13.311Z,6.28
2019-03-09T06:51:45.334Z,6.53
2019-03-09T06:54:16.812Z,6.41
2019-03-09T06:56:48.260Z,6.25
2019-03-09T06:59:19.705Z,6.07
2019-03-09T07:01:52.382Z,5.96
2019-03-09T07:04:22.949Z,6.03
2019-03-09T07:06:54.395Z,6.12
2019-03-09T07:09:25.856Z,6.32
2019-03-09T07:11:57.295Z,6.63
2019-03-09T07:14:52.187Z,7.67
2019-03-09T07:17:22.586Z,7.96
2019-03-09T07:19:54.088Z,9.04
2019-03-09T07:22:24.611Z,9.85
2019-03-09T07:24:56.049Z,9.27
2019-03-09T07:27:28.584Z,9.56
2019-03-09T07:29:58.960Z,9.55
2019-03-09T07:32:30.697Z,9.74
2019-03-09T07:35:02.214Z,11.45
2019-03-09T07:37:32.673Z,12.42
2019-03-09T07:40:03.984Z,11.22
2019-03-09T07:42:35.574Z,10.66
2019-03-09T07:45:09.194Z,10.47
2019-03-09T07:47:39.458Z,9.82
2019-03-09T07:50:12.963Z,9.53
2019-03-09T07:52:45.910Z,9.21
2019-03-09T07:55:34.071Z,8.74
2019-03-09T07:58:05.904Z,8.48
2019-03-09T08:00:36.354Z,8.28
2019-03-09T08:03:10.077Z,8.17
2019-03-09T08:05:42.296Z,8.14
2019-03-09T08:08:12.802Z,8.10
2019-03-09T08:10:50.289Z,8.17
2019-03-09T08:16:13.018Z,8.13
2019-03-09T08:18:45.384Z,8.17
2019-03-09T08:21:16.738Z,8.05
2019-03-09T08:23:49.890Z,7.90
2019-03-09T08:26:22.339Z,7.73
2019-03-09T08:28:53.996Z,7.72
2019-03-09T08:31:25.494Z,7.72
2019-03-09T08:33:55.904Z,7.72
2019-03-09T08:36:26.861Z,7.64
2019-03-09T08:38:58.618Z,7.63
2019-03-09T08:41:29.032Z,7.59
2019-03-09T08:44:02.149Z,7.48
2019-03-09T08:46:32.573Z,7.40
2019-03-09T08:49:03.076Z,7.33
2019-03-09T08:51:34.547Z,7.22
2019-03-09T08:54:05.063Z,7.15
2019-03-09T08:56:35.977Z,7.07
2019-03-09T08:59:07.960Z,6.98
2019-03-09T09:01:38.708Z,6.88
2019-03-09T09:04:27.551Z,6.89
2019-03-09T09:06:59.210Z,6.90
2019-03-09T09:09:30.989Z,6.89
2019-03-09T09:12:03.684Z,6.89
2019-03-09T09:14:35.115Z,6.85
2019-03-09T09:17:05.645Z,6.80
2019-03-09T09:19:35.869Z,6.83
2019-03-09T09:22:06.922Z,6.78
2019-03-09T09:24:38.464Z,6.69
2019-03-09T09:27:09.021Z,6.64
2019-03-09T09:29:40.279Z,6.70
2019-03-09T09:32:13.754Z,6.69
2019-03-09T09:34:44.550Z,6.63
2019-03-09T09:37:15.420Z,6.68
2019-03-09T09:39:46.444Z,6.70
2019-03-09T09:42:21.682Z,6.61
2019-03-09T09:44:53.193Z,6.60
2019-03-09T09:47:26.272Z,6.58
2019-03-09T09:50:00.664Z,6.50
2019-03-09T09:52:36.444Z,6.43
2019-03-09T09:55:11.184Z,6.43
2019-03-09T09:57:41.487Z,6.33
2019-03-09T10:00:26.300Z,6.26
2019-03-09T10:02:56.664Z,6.19
2019-03-09T10:05:29.072Z,6.17
2019-03-09T10:07:59.594Z,6.09
2019-03-09T10:10:30.135Z,6.02
2019-03-09T10:13:02.447Z,6.02
2019-03-09T10:15:34.493Z,6.04
2019-03-09T10:18:06.020Z,6.06
2019-03-09T10:20:37.988Z,6.12
2019-03-09T10:23:10.411Z,6.16
2019-03-09T10:25:41.951Z,6.16
2019-03-09T10:28:14.005Z,6.15
2019-03-09T10:30:44.441Z,6.19
2019-03-09T10:33:14.697Z,6.28
2019-03-09T10:35:46.124Z,6.29
2019-03-09T10:38:16.368Z,6.29
2019-03-09T10:40:48.245Z,6.35
2019-03-09T10:43:18.762Z,6.38
2019-03-09T10:45:50.235Z,6.44
2019-03-09T10:48:20.591Z,6.52
2019-03-09T10:50:50.861Z,6.68
2019-03-09T10:53:22.290Z,6.85
2019-03-09T10:55:53.870Z,7.23
2019-03-09T10:58:24.252Z,7.48
2019-03-09T11:00:54.527Z,7.55
2019-03-09T11:03:26.076Z,7.60
2019-03-09T11:05:56.483Z,7.66
2019-03-09T11:08:28.822Z,7.82
2019-03-09T11:10:59.389Z,7.73
2019-03-09T11:13:29.903Z,7.90
2019-03-09T11:16:00.568Z,8.11
2019-03-09T11:18:30.957Z,8.01
2019-03-09T11:21:01.512Z,7.86
2019-03-09T11:23:34.510Z,7.79
2019-03-09T11:26:05.045Z,7.82
2019-03-09T11:28:35.683Z,7.90
2019-03-09T11:31:06.109Z,7.95
2019-03-09T11:33:37.527Z,7.99
2019-03-09T11:36:09.621Z,8.02
2019-03-09T11:38:41.026Z,8.05
2019-03-09T11:41:18.787Z,8.32
2019-03-09T11:43:44.330Z,8.39
2019-03-09T11:46:14.884Z,8.56
2019-03-09T11:48:48.503Z,8.78
2019-03-09T11:51:19.136Z,9.08
2019-03-09T11:53:50.037Z,9.20
2019-03-09T11:56:21.599Z,9.26
2019-03-09T11:58:52.021Z,9.33
2019-03-09T12:01:23.269Z,9.59
2019-03-09T12:03:53.706Z,9.66
2019-03-09T12:06:25.185Z,9.87
2019-03-09T12:08:56.604Z,10.13
2019-03-09T12:11:27.756Z,10.19
2019-03-09T12:13:58.890Z,10.60
2019-03-09T12:16:29.447Z,10.90
2019-03-09T12:19:01.178Z,10.98
2019-03-09T12:21:33.775Z,11.03
2019-03-09T12:24:04.122Z,11.07
2019-03-09T12:26:34.461Z,11.02
2019-03-09T12:29:04.835Z,11.23
2019-03-09T12:31:36.354Z,11.18
2019-03-09T12:34:06.833Z,11.28
2019-03-09T12:36:37.378Z,11.44
2019-03-09T12:39:10.038Z,11.42
2019-03-09T12:41:42.444Z,11.35
2019-03-09T12:44:12.931Z,11.53
2019-03-09T12:46:43.480Z,11.45
2019-03-09T12:49:15.529Z,11.53
2019-03-09T12:51:46.224Z,11.75
2019-03-09T12:54:16.602Z,11.77
2019-03-09T12:56:46.907Z,11.98
2019-03-09T12:59:19.845Z,12.31
2019-03-09T13:01:57.859Z,12.70
2019-03-09T13:04:30.270Z,12.96
2019-03-09T13:07:02.143Z,12.97
2019-03-09T13:09:32.393Z,12.98
2019-03-09T13:12:03.833Z,13.15
2019-03-09T13:14:34.338Z,13.29
2019-03-09T13:17:06.200Z,13.13
2019-03-09T13:19:36.730Z,12.86
2019-03-09T13:22:08.456Z,12.97
2019-03-09T13:24:40.977Z,12.44
2019-03-09T13:27:11.925Z,12.42
2019-03-09T13:29:44.589Z,12.27
2019-03-09T13:32:15.144Z,12.18
2019-03-09T13:34:46.568Z,12.11
2019-03-09T13:37:16.846Z,12.15
2019-03-09T13:39:47.319Z,12.15
2019-03-09T13:42:17.866Z,12.15
2019-03-09T13:44:48.387Z,12.12
2019-03-09T13:47:19.856Z,12.16
2019-03-09T13:49:51.011Z,12.02
2019-03-09T13:52:21.765Z,12.20
2019-03-09T13:54:52.110Z,12.56
2019-03-09T13:57:22.663Z,12.55
2019-03-09T13:59:53.234Z,12.65
2019-03-09T14:02:23.682Z,12.55
2019-03-09T14:04:57.278Z,12.36
2019-03-09T14:07:27.874Z,12.36
2019-03-09T14:09:58.302Z,12.22
2019-03-09T14:12:31.954Z,11.80
2019-03-09T14:15:02.511Z,11.78
2019-03-09T14:17:32.995Z,11.61
2019-03-09T14:20:05.587Z,11.55
2019-03-09T14:22:36.489Z,11.64
2019-03-09T14:25:09.324Z,11.66
2019-03-09T14:27:41.219Z,11.55
2019-03-09T14:30:14.354Z,11.42
2019-03-09T14:32:47.518Z,11.49
2019-03-09T14:35:19.039Z,11.39
2019-03-09T14:37:51.035Z,11.43
2019-03-09T14:40:22.772Z,11.40
2019-03-09T14:42:54.244Z,11.39
2019-03-09T14:45:24.573Z,11.47
2019-03-09T14:47:54.997Z,11.60
2019-03-09T14:50:25.516Z,11.69
2019-03-09T14:52:56.974Z,11.85
2019-03-09T14:55:27.490Z,11.74
2019-03-09T14:57:58.948Z,11.80
2019-03-09T15:00:30.391Z,11.71
2019-03-09T15:03:00.936Z,11.79
2019-03-09T15:05:31.446Z,11.74
2019-03-09T15:08:02.927Z,11.66
2019-03-09T15:10:34.340Z,11.63
2019-03-09T15:13:06.427Z,11.53
2019-03-09T15:15:36.703Z,11.42
2019-03-09T15:18:08.701Z,11.23
2019-03-09T15:20:39.232Z,11.11
2019-03-09T15:23:09.787Z,10.98
2019-03-09T15:25:41.208Z,10.85
2019-03-09T15:28:14.023Z,10.66
2019-03-09T15:30:45.953Z,10.52
2019-03-09T15:33:17.498Z,10.56
2019-03-09T15:36:01.797Z,10.42
2019-03-09T15:38:37.443Z,10.36
2019-03-09T15:41:10.306Z,10.40
2019-03-09T15:43:40.985Z,10.40
2019-03-09T15:46:11.631Z,10.40
2019-03-09T15:48:42.125Z,10.46
2019-03-09T15:51:12.613Z,10.46
2019-03-09T15:53:44.093Z,10.36
2019-03-09T15:56:18.425Z,10.34
2019-03-09T15:58:48.822Z,10.26
2019-03-09T16:01:19.358Z,10.28
2019-03-09T16:03:50.948Z,10.20
2019-03-09T16:06:21.368Z,10.16
2019-03-09T16:08:51.905Z,10.08
2019-03-09T16:11:23.822Z,10.00
2019-03-09T16:13:55.124Z,9.92
2019-03-09T16:16:25.631Z,9.86
2019-03-09T16:18:57.745Z,9.82
2019-03-09T16:21:29.505Z,9.77
2019-03-09T16:24:00.127Z,9.75
2019-03-09T16:26:30.872Z,9.71
2019-03-09T16:29:04.030Z,9.69
2019-03-09T16:31:34.643Z,9.66
2019-03-09T16:34:06.778Z,9.57
2019-03-09T16:36:41.618Z,9.59
2019-03-09T16:39:15.330Z,9.61
2019-03-09T16:41:45.740Z,9.57
2019-03-09T16:44:17.541Z,9.55
2019-03-09T16:46:48.308Z,9.56
2019-03-09T16:49:20.422Z,9.55
2019-03-09T16:51:50.896Z,9.60
2019-03-09T16:54:25.157Z,9.52
2019-03-09T16:57:01.639Z,9.53
2019-03-09T16:59:37.571Z,9.52
2019-03-09T17:02:10.183Z,9.53
2019-03-09T17:04:43.344Z,9.62
2019-03-09T17:07:15.733Z,9.65
2019-03-09T17:09:46.195Z,9.61
2019-03-09T17:12:16.874Z,9.50
2019-03-09T17:14:50.591Z,9.08
2019-03-09T17:17:24.533Z,8.75
2019-03-09T17:19:55.223Z,7.85
2019-03-09T17:22:32.943Z,7.20
2019-03-09T17:25:00.321Z,6.90
2019-03-09T17:27:31.105Z,6.81
2019-03-09T17:30:02.609Z,6.45
2019-03-09T17:32:34.674Z,6.27
2019-03-09T17:35:08.421Z,6.12
2019-03-09T17:37:40.318Z,6.03
2019-03-09T17:40:14.029Z,6.07
2019-03-09T17:42:44.515Z,6.09
2019-03-09T17:45:34.207Z,6.02
2019-03-09T17:48:05.052Z,6.12
2019-03-09T17:50:35.624Z,6.17
2019-03-09T17:53:14.052Z,6.18
2019-03-09T17:55:48.923Z,6.18
2019-03-09T17:58:25.784Z,6.19
2019-03-09T18:00:59.291Z,6.24
2019-03-09T18:03:31.947Z,6.30
2019-03-09T18:06:02.367Z,6.38
2019-03-09T18:08:35.455Z,6.43
2019-03-09T18:11:09.532Z,6.35
2019-03-09T18:13:40.207Z,6.41
2019-03-09T18:16:12.602Z,6.48
2019-03-09T18:18:44.098Z,6.73
2019-03-09T18:21:15.123Z,6.90
2019-03-09T18:23:45.628Z,6.91
2019-03-09T18:26:16.015Z,6.87
2019-03-09T18:28:48.802Z,6.88
2019-03-09T18:31:19.250Z,6.96
2019-03-09T18:33:50.171Z,7.02
2019-03-09T18:36:20.539Z,7.02
2019-03-09T18:38:52.012Z,7.05
2019-03-09T18:41:24.122Z,7.05
2019-03-09T18:44:01.142Z,7.05
2019-03-09T18:46:33.841Z,7.01
2019-03-09T18:49:04.119Z,7.01
2019-03-09T18:51:34.464Z,6.97
2019-03-09T18:54:05.932Z,7.01
2019-03-09T18:56:37.378Z,7.05
2019-03-09T18:59:07.913Z,7.07
2019-03-09T19:01:38.423Z,7.00
2019-03-09T19:04:09.892Z,6.99
2019-03-09T19:06:41.328Z,7.07
2019-03-09T19:09:11.869Z,7.10
2019-03-09T19:11:42.384Z,7.10
2019-03-09T19:14:13.867Z,7.07
2019-03-09T19:16:44.385Z,7.03
2019-03-09T19:19:16.149Z,7.01
2019-03-09T19:21:46.675Z,6.96
2019-03-09T19:24:18.129Z,6.94
2019-03-09T19:26:48.383Z,6.90
2019-03-09T19:29:18.922Z,6.82
2019-03-09T19:31:49.261Z,6.83
2019-03-09T19:34:21.166Z,6.82
2019-03-09T19:36:51.427Z,6.74
2019-03-09T19:39:24.073Z,6.57
2019-03-09T19:41:55.496Z,6.49
2019-03-09T19:44:26.966Z,6.50
2019-03-09T19:47:00.959Z,6.47
2019-03-09T19:49:31.403Z,6.45
2019-03-09T19:52:07.743Z,6.42
2019-03-09T19:54:52.293Z,6.35
2019-03-09T19:57:29.317Z,6.17
2019-03-09T20:00:11.843Z,6.11
2019-03-09T20:02:42.124Z,6.08
2019-03-09T20:05:13.623Z,6.05
2019-03-09T20:07:44.122Z,6.03
2019-03-09T20:10:19.094Z,5.95
2019-03-09T20:12:49.468Z,5.88
2019-03-09T20:15:20.477Z,5.78
2019-03-09T20:17:52.602Z,5.78
2019-03-09T20:20:22.928Z,5.66
2019-03-09T20:22:54.371Z,5.67
2019-03-09T20:25:28.612Z,5.61
2019-03-09T20:28:00.339Z,5.58
2019-03-09T20:30:31.798Z,5.56
2019-03-09T20:33:02.594Z,5.59
2019-03-09T20:35:37.914Z,5.63
2019-03-09T20:38:08.297Z,5.66
2019-03-09T20:40:39.789Z,5.62
2019-03-09T20:43:13.132Z,5.59
2019-03-09T20:45:46.048Z,5.56
2019-03-09T20:48:16.548Z,5.52
2019-03-09T20:50:47.098Z,5.49
2019-03-09T20:53:18.485Z,5.54
2019-03-09T20:55:50.722Z,5.59
2019-03-09T20:58:26.373Z,5.69
2019-03-09T21:01:00.685Z,5.73
2019-03-09T21:03:34.349Z,5.74
2019-03-09T21:06:04.723Z,5.74
2019-03-09T21:08:36.157Z,5.79
2019-03-09T21:11:07.638Z,5.81
2019-03-09T21:13:38.190Z,5.84
2019-03-09T21:16:19.177Z,5.86
2019-03-09T21:18:52.721Z,5.90
2019-03-09T21:21:26.562Z,5.93
2019-03-09T21:23:58.688Z,5.86
2019-03-09T21:26:32.977Z,5.87
2019-03-09T21:29:05.071Z,5.80
2019-03-09T21:31:37.734Z,5.75
2019-03-09T21:34:08.555Z,5.69
2019-03-09T21:36:39.038Z,5.53
2019-03-09T21:39:09.544Z,5.50
2019-03-09T21:41:42.546Z,5.49
2019-03-09T21:44:13.994Z,5.46
2019-03-09T21:46:44.532Z,5.48
2019-03-09T21:49:17.600Z,5.50
2019-03-09T21:51:49.321Z,5.49
2019-03-09T21:54:19.803Z,5.51
2019-03-09T21:56:50.348Z,5.57
2019-03-09T21:59:21.232Z,5.56
2019-03-09T22:01:52.641Z,5.60
2019-03-09T22:04:23.144Z,5.64
2019-03-09T22:06:54.932Z,5.73
2019-03-09T22:09:25.377Z,5.77
2019-03-09T22:12:00.840Z,5.78
2019-03-09T22:14:32.744Z,5.83
2019-03-09T22:17:05.161Z,5.85
2019-03-09T22:19:37.995Z,5.81
2019-03-09T22:22:10.374Z,5.84
2019-03-09T22:24:41.815Z,5.80
2019-03-09T22:27:13.304Z,5.86
2019-03-09T22:29:45.014Z,5.82
2019-03-09T22:32:15.565Z,5.79
2019-03-09T22:34:46.991Z,5.76
2019-03-09T22:37:17.264Z,5.79
2019-03-09T22:39:48.665Z,5.77
2019-03-09T22:42:18.926Z,5.77
2019-03-09T22:44:50.350Z,5.72
2019-03-09T22:47:20.605Z,5.73
2019-03-09T22:49:52.023Z,5.70
2019-03-09T22:52:25.694Z,5.64
2019-03-09T22:54:58.941Z,5.60
2019-03-09T22:57:38.693Z,5.61
2019-03-09T23:00:17.587Z,5.58
2019-03-09T23:02:49.565Z,5.58
2019-03-09T23:05:20.998Z,5.54
2019-03-09T23:07:51.259Z,5.50
2019-03-09T23:10:27.654Z,5.49
2019-03-09T23:12:59.082Z,5.51
2019-03-09T23:15:31.102Z,5.50
2019-03-09T23:18:01.640Z,5.51
2019-03-09T23:20:32.786Z,5.49
2019-03-09T23:23:03.324Z,5.52
2019-03-09T23:25:34.757Z,5.53
2019-03-09T23:28:05.101Z,5.56
2019-03-09T23:30:35.516Z,5.54
2019-03-09T23:33:07.591Z,5.49
2019-03-09T23:35:39.037Z,5.45
2019-03-09T23:38:11.411Z,5.31
2019-03-09T23:40:42.845Z,5.24
2019-03-09T23:43:13.104Z,5.14
2019-03-09T23:45:43.605Z,5.08
2019-03-09T23:48:15.073Z,5.00
2019-03-09T23:50:45.321Z,4.96
2019-03-09T23:53:15.820Z,4.99
2019-03-09T23:55:47.257Z,5.00
2019-03-09T23:58:19.044Z,5.00
